createdAt,value
2018-09-23T00:02:03.965Z,13.50
2018-09-23T00:04:32.309Z,13.50
2018-09-23T00:07:00.513Z,13.50
2018-09-23T00:09:28.801Z,13.60
2018-09-23T00:11:56.971Z,13.60
2018-09-23T00:14:25.146Z,13.60
2018-09-23T00:16:53.349Z,13.60
2018-09-23T00:19:21.558Z,13.60
2018-09-23T00:21:49.737Z,13.60
2018-09-23T00:24:17.952Z,13.60
2018-09-23T00:26:46.143Z,13.60
2018-09-23T00:29:18.576Z,13.50
2018-09-23T00:31:46.794Z,13.50
2018-09-23T00:34:14.988Z,13.50
2018-09-23T00:36:43.173Z,13.40
2018-09-23T00:39:11.350Z,13.40
2018-09-23T00:41:39.550Z,13.40
2018-09-23T00:44:07.722Z,13.40
2018-09-23T00:46:35.901Z,13.40
2018-09-23T00:49:04.081Z,13.40
2018-09-23T00:51:32.298Z,13.40
2018-09-23T00:54:07.056Z,13.40
2018-09-23T00:56:35.629Z,13.40
2018-09-23T00:59:08.765Z,13.40
2018-09-23T01:01:36.985Z,13.40
2018-09-23T01:04:05.122Z,13.40
2018-09-23T01:06:33.324Z,13.50
2018-09-23T01:09:01.532Z,13.50
2018-09-23T01:11:29.765Z,13.50
2018-09-23T01:13:57.949Z,13.50
2018-09-23T01:16:26.122Z,13.40
2018-09-23T01:18:54.383Z,13.50
2018-09-23T01:21:22.566Z,13.50
2018-09-23T01:23:50.784Z,13.50
2018-09-23T01:26:19.069Z,13.50
2018-09-23T01:28:47.271Z,13.50
2018-09-23T01:31:15.522Z,13.50
2018-09-23T01:33:43.693Z,13.50
2018-09-23T01:36:11.858Z,13.50
2018-09-23T01:38:40.014Z,13.50
2018-09-23T01:41:08.218Z,13.50
2018-09-23T01:43:36.483Z,13.50
2018-09-23T01:46:04.622Z,13.50
2018-09-23T01:48:32.805Z,13.60
2018-09-23T01:51:01.048Z,13.50
2018-09-23T01:53:29.212Z,13.60
2018-09-23T01:55:57.429Z,13.60
2018-09-23T01:58:25.576Z,13.60
2018-09-23T02:00:53.730Z,13.70
2018-09-23T02:03:21.880Z,13.70
2018-09-23T02:05:50.050Z,13.70
2018-09-23T02:08:18.252Z,13.80
2018-09-23T02:10:46.529Z,13.70
2018-09-23T02:13:14.822Z,13.70
2018-09-23T02:15:42.985Z,13.80
2018-09-23T02:18:11.166Z,13.80
2018-09-23T02:20:39.338Z,13.70
2018-09-23T02:23:07.545Z,13.70
2018-09-23T02:25:35.719Z,13.70
2018-09-23T02:28:03.929Z,13.70
2018-09-23T02:30:32.036Z,13.70
2018-09-23T02:33:00.256Z,13.70
2018-09-23T02:35:28.409Z,13.80
2018-09-23T02:37:56.577Z,13.80
2018-09-23T02:40:24.797Z,13.80
2018-09-23T02:42:53.330Z,13.80
2018-09-23T02:45:21.512Z,13.80
2018-09-23T02:47:49.727Z,13.80
2018-09-23T02:50:17.922Z,13.90
2018-09-23T02:52:46.089Z,13.80
2018-09-23T02:55:14.294Z,13.80
2018-09-23T02:57:42.485Z,13.80
2018-09-23T03:00:10.676Z,13.80
2018-09-23T03:02:38.878Z,13.80
2018-09-23T03:05:07.049Z,13.80
2018-09-23T03:07:35.224Z,13.90
2018-09-23T03:10:03.424Z,13.90
2018-09-23T03:12:31.612Z,14.00
2018-09-23T03:14:59.790Z,13.90
2018-09-23T03:17:27.944Z,14.00
2018-09-23T03:19:56.139Z,14.00
2018-09-23T03:22:24.358Z,14.00
2018-09-23T03:24:52.562Z,14.10
2018-09-23T03:27:20.764Z,14.10
2018-09-23T03:29:48.965Z,14.10
2018-09-23T03:32:17.151Z,14.10
2018-09-23T03:34:45.353Z,14.10
2018-09-23T03:37:13.512Z,14.10
2018-09-23T03:39:41.733Z,14.10
2018-09-23T03:42:09.937Z,14.20
2018-09-23T03:44:38.123Z,14.20
2018-09-23T03:47:06.279Z,14.20
2018-09-23T03:49:34.474Z,14.20
2018-09-23T03:52:02.649Z,14.30
2018-09-23T03:54:30.820Z,14.30
2018-09-23T03:56:58.994Z,14.30
2018-09-23T03:59:27.254Z,14.30
2018-09-23T04:01:55.446Z,14.30
2018-09-23T04:04:23.646Z,14.30
2018-09-23T04:06:51.854Z,14.40
2018-09-23T04:09:20.038Z,14.40
2018-09-23T04:11:48.234Z,14.40
2018-09-23T04:14:16.427Z,14.40
2018-09-23T04:16:44.593Z,14.40
2018-09-23T04:19:12.751Z,14.40
2018-09-23T04:21:40.927Z,14.40
2018-09-23T04:24:09.125Z,14.50
2018-09-23T04:26:37.308Z,14.40
2018-09-23T04:29:05.462Z,14.50
2018-09-23T04:31:33.758Z,14.50
2018-09-23T04:34:01.935Z,14.60
2018-09-23T04:36:30.107Z,14.60
2018-09-23T04:38:58.277Z,14.60
2018-09-23T04:41:26.500Z,14.60
2018-09-23T04:43:54.704Z,14.60
2018-09-23T04:46:22.867Z,14.60
2018-09-23T04:48:51.057Z,14.60
2018-09-23T04:51:19.217Z,14.60
2018-09-23T04:53:47.384Z,14.60
2018-09-23T04:56:15.566Z,14.70
2018-09-23T04:58:43.747Z,14.70
2018-09-23T05:01:11.993Z,14.70
2018-09-23T05:03:40.194Z,14.80
2018-09-23T05:06:08.411Z,14.80
2018-09-23T05:08:36.629Z,14.80
2018-09-23T05:11:04.800Z,14.80
2018-09-23T05:13:32.989Z,14.80
2018-09-23T05:16:01.158Z,14.80
2018-09-23T05:18:29.337Z,14.80
2018-09-23T05:20:57.508Z,14.90
2018-09-23T05:23:25.669Z,14.90
2018-09-23T05:25:53.870Z,15.00
2018-09-23T05:28:22.041Z,15.00
2018-09-23T05:30:50.254Z,15.00
2018-09-23T05:33:18.423Z,15.00
2018-09-23T05:35:46.617Z,15.10
2018-09-23T05:38:14.831Z,15.00
2018-09-23T05:40:42.989Z,15.00
2018-09-23T05:43:11.177Z,15.00
2018-09-23T05:45:39.322Z,15.00
2018-09-23T05:48:07.479Z,15.00
2018-09-23T05:50:35.637Z,15.10
2018-09-23T05:53:03.826Z,15.20
2018-09-23T05:55:32.004Z,15.20
2018-09-23T05:58:00.202Z,15.30
2018-09-23T06:00:30.953Z,15.40
2018-09-23T06:02:59.135Z,15.50
2018-09-23T06:05:27.290Z,15.60
2018-09-23T06:07:55.462Z,15.60
2018-09-23T06:10:23.610Z,15.60
2018-09-23T06:12:51.774Z,15.60
2018-09-23T06:15:19.945Z,15.70
2018-09-23T06:17:48.292Z,15.70
2018-09-23T06:20:16.492Z,15.70
2018-09-23T06:22:44.659Z,15.70
2018-09-23T06:25:12.859Z,15.70
2018-09-23T06:27:40.960Z,15.80
2018-09-23T06:30:09.108Z,15.80
2018-09-23T06:32:37.268Z,15.90
2018-09-23T06:35:05.420Z,16.00
2018-09-23T06:37:33.594Z,16.10
2018-09-23T06:40:01.748Z,16.20
2018-09-23T06:42:29.893Z,16.30
2018-09-23T06:44:58.032Z,16.40
2018-09-23T06:47:26.178Z,16.60
2018-09-23T06:49:54.317Z,16.70
2018-09-23T06:52:22.589Z,16.80
2018-09-23T06:54:51.383Z,16.90
2018-09-23T06:57:19.659Z,17.10
2018-09-23T06:59:47.797Z,17.20
2018-09-23T07:02:17.009Z,17.40
2018-09-23T07:04:45.289Z,17.50
2018-09-23T07:07:13.295Z,17.50
2018-09-23T07:09:41.433Z,17.60
2018-09-23T07:12:09.650Z,17.70
2018-09-23T07:14:37.795Z,17.60
2018-09-23T07:17:06.118Z,17.60
2018-09-23T07:19:34.266Z,17.60
2018-09-23T07:22:02.443Z,17.60
2018-09-23T07:24:30.610Z,17.80
2018-09-23T07:26:58.750Z,18.00
2018-09-23T07:29:26.901Z,18.30
2018-09-23T07:31:55.058Z,18.50
2018-09-23T07:34:23.233Z,18.70
2018-09-23T07:36:51.497Z,18.90
2018-09-23T07:39:19.627Z,19.00
2018-09-23T07:41:47.840Z,19.20
2018-09-23T07:44:15.992Z,19.30
2018-09-23T07:46:44.130Z,19.40
2018-09-23T07:49:12.289Z,19.40
2018-09-23T07:51:40.449Z,19.50
2018-09-23T07:54:08.610Z,19.50
2018-09-23T07:56:36.830Z,19.50
2018-09-23T07:59:04.932Z,19.60
2018-09-23T08:01:33.098Z,19.60
2018-09-23T08:04:01.273Z,19.60
2018-09-23T08:06:29.441Z,19.70
2018-09-23T08:08:57.617Z,19.70
2018-09-23T08:11:25.814Z,19.70
2018-09-23T08:13:54.128Z,19.90
2018-09-23T08:16:22.154Z,20.00
2018-09-23T08:18:50.301Z,20.30
2018-09-23T08:21:18.462Z,20.30
2018-09-23T08:23:46.624Z,20.50
2018-09-23T08:26:14.791Z,20.50
2018-09-23T08:28:42.925Z,20.60
2018-09-23T08:31:11.131Z,20.60
2018-09-23T08:33:39.273Z,20.60
2018-09-23T08:36:07.540Z,20.60
2018-09-23T08:38:35.714Z,20.60
2018-09-23T08:41:03.943Z,20.60
2018-09-23T08:43:32.102Z,20.60
2018-09-23T08:46:00.289Z,20.60
2018-09-23T08:48:29.879Z,20.70
2018-09-23T08:51:04.016Z,20.70
2018-09-23T08:53:35.323Z,20.80
2018-09-23T08:56:06.333Z,20.80
2018-09-23T08:58:49.145Z,20.80
2018-09-23T09:01:17.982Z,20.80
2018-09-23T09:03:46.300Z,20.70
2018-09-23T09:06:14.794Z,20.70
2018-09-23T09:08:42.975Z,20.80
2018-09-23T09:11:12.266Z,20.80
2018-09-23T09:13:40.641Z,20.90
2018-09-23T09:16:10.544Z,20.90
2018-09-23T09:18:41.067Z,20.90
2018-09-23T09:21:09.240Z,20.80
2018-09-23T09:23:39.652Z,20.90
2018-09-23T09:26:28.177Z,20.90
2018-09-23T09:29:06.784Z,21.10
2018-09-23T09:31:36.306Z,21.50
2018-09-23T09:34:04.446Z,21.80
2018-09-23T09:36:32.578Z,21.80
2018-09-23T09:39:00.736Z,21.90
2018-09-23T09:41:29.014Z,21.90
2018-09-23T09:43:57.609Z,22.00
2018-09-23T09:46:25.773Z,22.00
2018-09-23T09:48:53.910Z,21.90
2018-09-23T09:51:22.231Z,21.80
2018-09-23T09:53:54.789Z,21.90
2018-09-23T09:56:31.545Z,21.90
2018-09-23T09:59:03.337Z,22.20
2018-09-23T10:01:32.530Z,22.50
2018-09-23T10:04:24.843Z,22.70
2018-09-23T10:06:59.557Z,23.00
2018-09-23T10:09:28.466Z,23.60
2018-09-23T10:12:06.359Z,23.60
2018-09-23T10:14:38.532Z,23.70
2018-09-23T10:17:10.677Z,24.00
2018-09-23T10:19:40.703Z,23.70
2018-09-23T10:22:09.720Z,23.70
2018-09-23T10:24:41.302Z,23.50
2018-09-23T10:27:11.855Z,23.40
2018-09-23T10:29:42.100Z,23.30
2018-09-23T10:35:13.035Z,23.30
2018-09-23T10:37:49.500Z,23.40
2018-09-23T10:40:48.535Z,23.60
2018-09-23T10:43:23.295Z,23.80
2018-09-23T10:45:51.912Z,23.90
2018-09-23T10:48:32.714Z,24.00
2018-09-23T10:51:01.952Z,24.00
2018-09-23T10:53:30.124Z,23.90
2018-09-23T10:55:58.279Z,23.60
2018-09-23T10:58:26.430Z,23.70
2018-09-23T11:00:54.595Z,23.60
2018-09-23T11:03:22.835Z,23.40
2018-09-23T11:05:51.002Z,23.20
2018-09-23T11:08:19.672Z,23.20
2018-09-23T11:11:00.627Z,23.20
2018-09-23T11:16:35.154Z,23.30
2018-09-23T11:22:16.289Z,23.30
2018-09-23T11:25:44.319Z,23.40
2018-09-23T11:28:15.366Z,23.60
2018-09-23T11:30:50.252Z,23.80
2018-09-23T11:33:26.045Z,24.00
2018-09-23T11:36:05.381Z,24.10
2018-09-23T11:38:36.934Z,24.40
2018-09-23T11:41:05.531Z,24.70
2018-09-23T11:43:49.402Z,24.80
2018-09-23T11:46:19.067Z,24.50
2018-09-23T11:48:47.250Z,24.50
2018-09-23T11:51:15.470Z,24.60
2018-09-23T11:53:46.491Z,24.30
2018-09-23T11:56:18.376Z,24.00
2018-09-23T11:58:58.986Z,23.70
2018-09-23T12:01:28.587Z,23.60
2018-09-23T12:03:59.166Z,23.60
2018-09-23T12:06:27.528Z,23.70
2018-09-23T12:09:20.598Z,23.90
2018-09-23T12:11:57.359Z,23.80
2018-09-23T12:14:55.798Z,23.80
2018-09-23T12:17:25.562Z,23.70
2018-09-23T12:20:08.228Z,23.50
2018-09-23T12:22:41.595Z,23.30
2018-09-23T12:25:09.908Z,23.20
2018-09-23T12:27:38.071Z,23.10
2018-09-23T12:30:06.246Z,23.20
2018-09-23T12:32:34.700Z,23.20
2018-09-23T12:35:08.408Z,23.10
2018-09-23T12:37:37.937Z,23.20
2018-09-23T12:40:06.147Z,23.10
2018-09-23T12:42:34.308Z,23.00
2018-09-23T12:45:02.519Z,23.00
2018-09-23T12:47:30.798Z,23.00
2018-09-23T12:49:59.049Z,23.00
2018-09-23T12:52:27.346Z,23.00
2018-09-23T12:54:55.610Z,23.00
2018-09-23T12:57:23.862Z,23.00
2018-09-23T12:59:52.174Z,22.90
2018-09-23T13:02:20.441Z,22.90
2018-09-23T13:04:48.689Z,23.00
2018-09-23T13:07:16.934Z,23.00
2018-09-23T13:09:45.237Z,23.10
2018-09-23T13:12:13.432Z,23.30
2018-09-23T13:14:41.615Z,23.60
2018-09-23T13:17:09.821Z,23.90
2018-09-23T13:19:38.193Z,24.20
2018-09-23T13:22:06.436Z,24.30
2018-09-23T13:24:34.666Z,24.40
2018-09-23T13:27:02.921Z,24.40
2018-09-23T13:29:31.626Z,24.20
2018-09-23T13:31:59.929Z,24.10
2018-09-23T13:34:28.262Z,24.20
2018-09-23T13:36:56.456Z,24.50
2018-09-23T13:39:25.863Z,24.50
2018-09-23T13:44:32.449Z,24.20
2018-09-23T13:47:01.010Z,24.10
2018-09-23T13:49:29.696Z,24.20
2018-09-23T13:51:58.280Z,24.30
2018-09-23T13:54:26.544Z,24.50
2018-09-23T13:56:54.678Z,24.70
2018-09-23T13:59:22.851Z,24.80
2018-09-23T14:01:53.214Z,24.70
2018-09-23T14:04:21.671Z,24.70
2018-09-23T14:06:50.016Z,24.60
2018-09-23T14:09:19.375Z,24.50
2018-09-23T14:11:47.792Z,24.40
2018-09-23T14:14:16.308Z,24.40
2018-09-23T14:16:44.597Z,24.60
2018-09-23T14:19:13.094Z,24.70
2018-09-23T14:21:41.498Z,24.70
2018-09-23T14:24:10.028Z,24.80
2018-09-23T14:26:38.644Z,24.70
2018-09-23T14:29:07.145Z,24.60
2018-09-23T14:31:35.471Z,24.60
2018-09-23T14:34:03.674Z,24.60
2018-09-23T14:36:31.981Z,24.90
2018-09-23T14:39:00.247Z,25.00
2018-09-23T14:41:28.690Z,25.20
2018-09-23T14:43:57.071Z,25.20
2018-09-23T14:46:25.311Z,25.30
2018-09-23T14:48:53.525Z,25.20
2018-09-23T14:51:21.909Z,25.30
2018-09-23T14:53:50.165Z,25.10
2018-09-23T14:56:18.498Z,25.10
2018-09-23T14:58:46.759Z,25.10
2018-09-23T15:01:15.029Z,24.90
2018-09-23T15:03:43.555Z,24.70
2018-09-23T15:06:11.813Z,24.70
2018-09-23T15:08:40.411Z,24.70
2018-09-23T15:11:09.303Z,24.70
2018-09-23T15:13:37.694Z,24.70
2018-09-23T15:16:06.151Z,24.70
2018-09-23T15:18:34.525Z,24.90
2018-09-23T15:21:02.903Z,24.80
2018-09-23T15:23:31.305Z,24.70
2018-09-23T15:25:59.614Z,24.60
2018-09-23T15:28:27.990Z,24.80
2018-09-23T15:30:56.571Z,24.70
2018-09-23T15:33:25.212Z,24.70
2018-09-23T15:35:53.682Z,24.70
2018-09-23T15:38:22.891Z,24.60
2018-09-23T15:40:51.431Z,24.60
2018-09-23T15:43:20.797Z,24.60
2018-09-23T15:45:50.481Z,24.60
2018-09-23T15:48:19.672Z,24.50
2018-09-23T15:50:48.462Z,24.50
2018-09-23T15:53:19.425Z,24.40
2018-09-23T15:55:49.072Z,24.30
2018-09-23T15:58:20.237Z,24.20
2018-09-23T16:00:49.377Z,24.20
2018-09-23T16:03:18.004Z,24.10
2018-09-23T16:05:46.522Z,24.10
2018-09-23T16:16:51.271Z,24.00
2018-09-23T16:19:19.520Z,24.00
2018-09-23T16:21:47.787Z,23.90
2018-09-23T16:24:16.115Z,23.90
2018-09-23T16:26:44.494Z,23.90
2018-09-23T16:29:14.441Z,23.90
2018-09-23T16:31:42.652Z,23.90
2018-09-23T16:34:10.835Z,23.80
2018-09-23T16:36:39.211Z,23.80
2018-09-23T16:39:08.767Z,23.80
2018-09-23T16:41:37.027Z,23.80
2018-09-23T16:44:05.333Z,23.80
2018-09-23T16:46:37.994Z,23.70
2018-09-23T16:49:06.755Z,23.70
2018-09-23T17:04:43.314Z,23.70
2018-09-23T17:07:52.800Z,23.50
2018-09-23T17:10:21.030Z,23.50
2018-09-23T17:12:49.324Z,23.40
2018-09-23T17:15:17.518Z,23.40
2018-09-23T17:17:45.763Z,23.40
2018-09-23T17:20:14.028Z,23.30
2018-09-23T17:22:42.224Z,23.30
2018-09-23T17:25:10.478Z,23.30
2018-09-23T17:27:38.780Z,23.20
2018-09-23T17:30:07.163Z,22.10
2018-09-23T17:32:35.414Z,21.20
2018-09-23T17:35:03.723Z,20.40
2018-09-23T17:37:31.812Z,19.80
2018-09-23T17:39:59.994Z,19.10
2018-09-23T17:42:28.197Z,18.50
2018-09-23T17:44:56.374Z,18.20
2018-09-23T17:47:24.549Z,17.90
2018-09-23T17:49:52.743Z,17.70
2018-09-23T17:52:21.047Z,17.60
2018-09-23T17:54:49.306Z,17.60
2018-09-23T17:57:17.514Z,17.50
2018-09-23T17:59:45.684Z,17.40
2018-09-23T18:02:13.859Z,17.30
2018-09-23T18:04:42.141Z,17.40
2018-09-23T18:07:10.355Z,17.30
2018-09-23T18:09:38.527Z,17.20
2018-09-23T18:12:06.707Z,17.10
2018-09-23T18:14:34.911Z,17.10
2018-09-23T18:17:03.085Z,17.10
2018-09-23T18:19:31.294Z,17.10
2018-09-23T18:21:59.446Z,17.10
2018-09-23T18:24:27.627Z,17.10
2018-09-23T18:26:55.847Z,17.10
2018-09-23T18:29:24.056Z,17.00
2018-09-23T18:31:52.275Z,16.90
2018-09-23T18:34:20.517Z,16.90
2018-09-23T18:36:48.807Z,16.90
2018-09-23T18:39:17.009Z,16.90
2018-09-23T18:41:45.190Z,16.80
2018-09-23T18:44:13.350Z,16.80
2018-09-23T18:46:41.498Z,16.80
2018-09-23T18:49:09.695Z,16.70
2018-09-23T18:51:37.822Z,16.70
2018-09-23T18:54:11.472Z,16.70
2018-09-23T18:56:39.686Z,16.70
2018-09-23T18:59:07.837Z,16.70
2018-09-23T19:01:36.142Z,16.70
2018-09-23T19:04:04.505Z,16.70
2018-09-23T19:06:32.612Z,16.60
2018-09-23T19:09:00.789Z,16.60
2018-09-23T19:11:28.969Z,16.50
2018-09-23T19:13:57.262Z,16.50
2018-09-23T19:16:32.997Z,16.30
2018-09-23T19:19:01.179Z,16.30
2018-09-23T19:21:29.969Z,16.30
2018-09-23T19:23:58.431Z,16.30
2018-09-23T19:26:27.399Z,16.30
2018-09-23T19:28:55.746Z,16.00
2018-09-23T19:31:23.963Z,15.40
2018-09-23T19:33:52.243Z,15.10
2018-09-23T19:36:20.452Z,14.80
2018-09-23T19:38:48.723Z,14.60
2018-09-23T19:41:17.096Z,14.30
2018-09-23T19:43:45.249Z,14.00
2018-09-23T19:46:13.534Z,13.90
2018-09-23T19:48:41.715Z,13.80
2018-09-23T19:51:09.864Z,13.60
2018-09-23T19:53:38.225Z,13.60
2018-09-23T19:56:06.445Z,13.60
2018-09-23T19:58:34.623Z,13.50
2018-09-23T20:01:03.223Z,13.50
2018-09-23T20:03:33.771Z,13.40
2018-09-23T20:08:54.867Z,13.30
2018-09-23T20:11:23.009Z,13.30
2018-09-23T20:13:51.162Z,13.30
2018-09-23T20:16:19.349Z,13.20
2018-09-23T20:18:47.485Z,13.10
2018-09-23T20:21:15.631Z,13.20
2018-09-23T20:23:43.773Z,13.20
2018-09-23T20:26:11.898Z,13.20
2018-09-23T20:28:40.093Z,13.20
2018-09-23T20:31:08.259Z,13.30
2018-09-23T20:36:32.091Z,13.20
2018-09-23T20:39:00.508Z,13.10
2018-09-23T20:41:28.671Z,13.10
2018-09-23T20:43:59.131Z,13.10
2018-09-23T20:46:28.081Z,13.10
2018-09-23T20:48:56.270Z,13.10
2018-09-23T20:51:24.912Z,13.10
2018-09-23T20:53:53.265Z,13.10
2018-09-23T20:56:21.537Z,13.00
2018-09-23T20:58:49.860Z,12.80
2018-09-23T21:01:18.092Z,12.70
2018-09-23T21:03:46.371Z,12.70
2018-09-23T21:06:14.541Z,12.70
2018-09-23T21:08:42.698Z,12.60
2018-09-23T21:11:10.824Z,12.60
2018-09-23T21:13:39.014Z,12.60
2018-09-23T21:16:07.151Z,12.60
2018-09-23T21:18:35.373Z,12.50
2018-09-23T21:21:03.494Z,12.50
2018-09-23T21:23:31.684Z,12.50
2018-09-23T21:25:59.830Z,12.50
2018-09-23T21:28:28.077Z,12.50
2018-09-23T21:30:56.217Z,12.50
2018-09-23T21:33:24.387Z,12.40
2018-09-23T21:35:52.538Z,12.40
2018-09-23T21:38:20.706Z,12.50
2018-09-23T21:40:48.926Z,12.50
2018-09-23T21:43:17.124Z,12.50
2018-09-23T21:45:45.576Z,12.50
2018-09-23T21:48:13.765Z,12.60
2018-09-23T21:50:41.974Z,12.60
2018-09-23T21:53:10.213Z,12.70
2018-09-23T21:55:38.445Z,12.60
2018-09-23T21:58:06.611Z,12.50
2018-09-23T22:00:40.159Z,12.50
2018-09-23T22:03:08.329Z,12.40
2018-09-23T22:05:36.541Z,12.30
2018-09-23T22:08:04.714Z,12.30
2018-09-23T22:10:32.913Z,12.30
2018-09-23T22:13:01.111Z,12.30
2018-09-23T22:15:29.287Z,12.30
2018-09-23T22:17:57.865Z,12.30
2018-09-23T22:20:26.676Z,12.20
2018-09-23T22:22:55.443Z,12.30
2018-09-23T22:25:23.706Z,12.40
2018-09-23T22:27:52.638Z,12.40
2018-09-23T22:30:21.183Z,12.40
2018-09-23T22:32:49.276Z,12.30
2018-09-23T22:35:17.469Z,12.20
2018-09-23T22:37:45.636Z,12.20
2018-09-23T22:40:13.825Z,12.10
2018-09-23T22:42:42.029Z,12.00
2018-09-23T22:45:10.179Z,12.10
2018-09-23T22:47:38.366Z,12.10
2018-09-23T22:50:06.638Z,12.10
2018-09-23T22:52:34.786Z,12.00
2018-09-23T22:55:02.972Z,12.00
2018-09-23T22:57:31.150Z,12.00
2018-09-23T22:59:59.336Z,11.80
2018-09-23T23:02:27.535Z,11.80
2018-09-23T23:04:55.686Z,11.80
2018-09-23T23:07:23.843Z,11.80
2018-09-23T23:09:52.011Z,11.80
2018-09-23T23:12:20.170Z,11.80
2018-09-23T23:14:48.342Z,11.70
2018-09-23T23:17:16.494Z,11.60
2018-09-23T23:19:44.645Z,11.70
2018-09-23T23:22:12.799Z,11.70
2018-09-23T23:24:40.950Z,11.80
2018-09-23T23:27:09.111Z,11.70
2018-09-23T23:29:37.390Z,11.70
2018-09-23T23:32:05.664Z,11.70
2018-09-23T23:34:33.827Z,11.70
2018-09-23T23:37:01.979Z,11.70
2018-09-23T23:39:30.144Z,11.70
2018-09-23T23:41:58.317Z,11.60
2018-09-23T23:44:26.457Z,11.60
2018-09-23T23:46:54.624Z,11.60
2018-09-23T23:49:22.775Z,11.70
2018-09-23T23:51:50.938Z,11.60
2018-09-23T23:54:19.084Z,11.60
2018-09-23T23:56:47.293Z,11.70
2018-09-23T23:59:15.430Z,11.70
